KCMY/CMY METAR and TAF weather

Enter ICAO airport designator
Station Type Date Time Source
KCMY METAR 2019/12/11 17:35 UTC NOAA

KCMY 111735Z AUTO 27003KT 10SM CLR M14/M21 A3044 RMK AO2 T11411208


Station Type Date Time Source
KCMY Decoded METAR 2019/12/11 17:35 UTC NOAA

Sparta, Sparta / Fort McCoy Airport, WI, United States (KCMY) 43-57-30N 090-44-16W
Dec 11, 2019 - 12:35 PM EST / 2019.12.11 1735 UTC
Wind: from the W (270 degrees) at 3 MPH (3 KT):0
Visibility: 10 mile(s):0
Sky conditions: clear
Temperature: 6.6 F (-14.1 C)
Dew Point: -5.4 F (-20.8 C)
Relative Humidity: 56%
Pressure (altimeter): 30.44 in. Hg (1030 hPa)
ob: KCMY 111735Z AUTO 27003KT 10SM CLR M14/M21 A3044 RMK AO2 T11411208
cycle: 17

Station Type Date Time Source
KCMY TAF UTC NOAA

Error!

Example: see airport list